sensor_id;sensor_type;location;lat;lon;timestamp;temperature;humidity
34153;DHT22;20426;48.372;10.888;2023-11-18T00:00:23;5.50;99.90
34153;DHT22;20426;48.372;10.888;2023-11-18T00:00:54;5.50;99.90
34153;DHT22;20426;48.372;10.888;2023-11-18T00:01:25;5.50;99.90
34153;DHT22;20426;48.372;10.888;2023-11-18T00:02:00;5.50;99.90
34153;DHT22;20426;48.372;10.888;2023-11-18T00:02:31;5.50;99.90
34153;DHT22;20426;48.372;10.888;2023-11-18T00:03:04;5.40;99.90
34153;DHT22;20426;48.372;10.888;2023-11-18T00:03:35;5.50;99.90
34153;DHT22;20426;48.372;10.888;2023-11-18T00:04:06;5.50;99.90
34153;DHT22;20426;48.372;10.888;2023-11-18T00:04:40;5.50;99.90
34153;DHT22;20426;48.372;10.888;2023-11-18T00:05:11;5.50;99.90
34153;DHT22;20426;48.372;10.888;2023-11-18T00:05:42;5.50;99.90
34153;DHT22;20426;48.372;10.888;2023-11-18T00:06:13;5.40;99.90
34153;DHT22;20426;48.372;10.888;2023-11-18T00:06:44;5.40;99.90
34153;DHT22;20426;48.372;10.888;2023-11-18T00:07:15;5.40;99.90
34153;DHT22;20426;48.372;10.888;2023-11-18T00:07:46;5.40;99.90
34153;DHT22;20426;48.372;10.888;2023-11-18T00:08:16;5.40;99.90
34153;DHT22;20426;48.372;10.888;2023-11-18T00:08:47;5.40;99.90
34153;DHT22;20426;48.372;10.888;2023-11-18T00:09:17;5.40;99.90
34153;DHT22;20426;48.372;10.888;2023-11-18T00:09:48;5.50;99.90
34153;DHT22;20426;48.372;10.888;2023-11-18T00:10:19;5.40;99.90
34153;DHT22;20426;48.372;10.888;2023-11-18T00:10:50;5.40;99.90
34153;DHT22;20426;48.372;10.888;2023-11-18T00:11:20;5.40;99.90
34153;DHT22;20426;48.372;10.888;2023-11-18T00:11:51;5.50;99.90
34153;DHT22;20426;48.372;10.888;2023-11-18T00:12:22;5.40;99.90
34153;DHT22;20426;48.372;10.888;2023-11-18T00:12:54;5.40;99.90
34153;DHT22;20426;48.372;10.888;2023-11-18T00:13:25;5.40;99.90
34153;DHT22;20426;48.372;10.888;2023-11-18T00:13:59;5.50;99.90
34153;DHT22;20426;48.372;10.888;2023-11-18T00:14:30;5.40;99.90
34153;DHT22;20426;48.372;10.888;2023-11-18T00:15:04;5.40;99.90
34153;DHT22;20426;48.372;10.888;2023-11-18T00:15:34;5.50;99.90
34153;DHT22;20426;48.372;10.888;2023-11-18T00:16:06;5.50;99.90
34153;DHT22;20426;48.372;10.888;2023-11-18T00:16:37;5.50;99.90
34153;DHT22;20426;48.372;10.888;2023-11-18T00:17:08;5.40;99.90
34153;DHT22;20426;48.372;10.888;2023-11-18T00:17:40;5.40;99.90
34153;DHT22;20426;48.372;10.888;2023-11-18T00:18:11;5.40;99.90
34153;DHT22;20426;48.372;10.888;2023-11-18T00:18:42;5.40;99.90
34153;DHT22;20426;48.372;10.888;2023-11-18T00:19:13;5.40;99.90
34153;DHT22;20426;48.372;10.888;2023-11-18T00:19:44;5.40;99.90
34153;DHT22;20426;48.372;10.888;2023-11-18T00:20:15;5.40;99.90
34153;DHT22;20426;48.372;10.888;2023-11-18T00:20:46;5.30;99.90
34153;DHT22;20426;48.372;10.888;2023-11-18T00:21:17;5.30;99.90
34153;DHT22;20426;48.372;10.888;2023-11-18T00:21:48;5.40;99.90
34153;DHT22;20426;48.372;10.888;2023-11-18T00:22:19;5.40;99.90
34153;DHT22;20426;48.372;10.888;2023-11-18T00:22:50;5.40;99.90
34153;DHT22;20426;48.372;10.888;2023-11-18T00:23:21;5.40;99.90
34153;DHT22;20426;48.372;10.888;2023-11-18T00:23:52;5.40;99.90
34153;DHT22;20426;48.372;10.888;2023-11-18T00:24:23;5.40;99.90
34153;DHT22;20426;48.372;10.888;2023-11-18T00:24:54;5.40;99.90
34153;DHT22;20426;48.372;10.888;2023-11-18T00:25:25;5.40;99.90
34153;DHT22;20426;48.372;10.888;2023-11-18T00:25:56;5.40;99.90
34153;DHT22;20426;48.372;10.888;2023-11-18T00:26:26;5.40;99.90
34153;DHT22;20426;48.372;10.888;2023-11-18T00:26:57;5.40;99.90
34153;DHT22;20426;48.372;10.888;2023-11-18T00:27:28;5.40;99.90
34153;DHT22;20426;48.372;10.888;2023-11-18T00:27:58;5.40;99.90
34153;DHT22;20426;48.372;10.888;2023-11-18T00:28:29;5.40;99.90
34153;DHT22;20426;48.372;10.888;2023-11-18T00:29:00;5.40;99.90
34153;DHT22;20426;48.372;10.888;2023-11-18T00:29:34;5.40;99.90
34153;DHT22;20426;48.372;10.888;2023-11-18T00:30:06;5.40;99.90
34153;DHT22;20426;48.372;10.888;2023-11-18T00:30:38;5.40;99.90
34153;DHT22;20426;48.372;10.888;2023-11-18T00:31:10;5.40;99.90
34153;DHT22;20426;48.372;10.888;2023-11-18T00:31:40;5.40;99.90
34153;DHT22;20426;48.372;10.888;2023-11-18T00:32:11;5.40;99.90
34153;DHT22;20426;48.372;10.888;2023-11-18T00:32:42;5.40;99.90
34153;DHT22;20426;48.372;10.888;2023-11-18T00:33:12;5.40;99.90
34153;DHT22;20426;48.372;10.888;2023-11-18T00:33:43;5.40;99.90
34153;DHT22;20426;48.372;10.888;2023-11-18T00:34:14;5.40;99.90
34153;DHT22;20426;48.372;10.888;2023-11-18T00:34:44;5.40;99.90
34153;DHT22;20426;48.372;10.888;2023-11-18T00:35:15;5.40;99.90
34153;DHT22;20426;48.372;10.888;2023-11-18T00:35:46;5.40;99.90
34153;DHT22;20426;48.372;10.888;2023-11-18T00:36:16;5.40;99.90
34153;DHT22;20426;48.372;10.888;2023-11-18T00:36:47;5.40;99.90
34153;DHT22;20426;48.372;10.888;2023-11-18T00:37:18;5.40;99.90
34153;DHT22;20426;48.372;10.888;2023-11-18T00:37:49;5.40;99.90
34153;DHT22;20426;48.372;10.888;2023-11-18T00:38:19;5.30;99.90
34153;DHT22;20426;48.372;10.888;2023-11-18T00:38:50;5.40;99.90
34153;DHT22;20426;48.372;10.888;2023-11-18T00:39:21;5.30;99.90
34153;DHT22;20426;48.372;10.888;2023-11-18T00:39:51;5.30;99.90
34153;DHT22;20426;48.372;10.888;2023-11-18T00:40:22;5.30;99.90
34153;DHT22;20426;48.372;10.888;2023-11-18T00:40:53;5.30;99.90
34153;DHT22;20426;48.372;10.888;2023-11-18T00:41:23;5.30;99.90
34153;DHT22;20426;48.372;10.888;2023-11-18T00:41:54;5.30;99.90
34153;DHT22;20426;48.372;10.888;2023-11-18T00:42:26;5.30;99.90
34153;DHT22;20426;48.372;10.888;2023-11-18T00:42:57;5.30;99.90
34153;DHT22;20426;48.372;10.888;2023-11-18T00:43:27;5.30;99.90
34153;DHT22;20426;48.372;10.888;2023-11-18T00:43:58;5.30;99.90
34153;DHT22;20426;48.372;10.888;2023-11-18T00:44:29;5.30;99.90
34153;DHT22;20426;48.372;10.888;2023-11-18T00:44:59;5.30;99.90
34153;DHT22;20426;48.372;10.888;2023-11-18T00:45:30;5.30;99.90
34153;DHT22;20426;48.372;10.888;2023-11-18T00:46:01;5.30;99.90
34153;DHT22;20426;48.372;10.888;2023-11-18T00:46:33;5.30;99.90
34153;DHT22;20426;48.372;10.888;2023-11-18T00:47:06;5.30;99.90
34153;DHT22;20426;48.372;10.888;2023-11-18T00:47:37;5.20;99.90
34153;DHT22;20426;48.372;10.888;2023-11-18T00:48:07;5.30;99.90
34153;DHT22;20426;48.372;10.888;2023-11-18T00:48:38;5.20;99.90
34153;DHT22;20426;48.372;10.888;2023-11-18T00:49:09;5.30;99.90
34153;DHT22;20426;48.372;10.888;2023-11-18T00:49:41;5.20;99.90
34153;DHT22;20426;48.372;10.888;2023-11-18T00:50:12;5.30;99.90
34153;DHT22;20426;48.372;10.888;2023-11-18T00:50:43;5.20;99.90
34153;DHT22;20426;48.372;10.888;2023-11-18T00:51:14;5.20;99.90
34153;DHT22;20426;48.372;10.888;2023-11-18T00:51:44;5.20;99.90
34153;DHT22;20426;48.372;10.888;2023-11-18T00:52:15;5.10;99.90
34153;DHT22;20426;48.372;10.888;2023-11-18T00:52:46;5.20;99.90
34153;DHT22;20426;48.372;10.888;2023-11-18T00:53:18;5.10;99.90
34153;DHT22;20426;48.372;10.888;2023-11-18T00:53:49;5.20;99.90
34153;DHT22;20426;48.372;10.888;2023-11-18T00:54:20;5.10;99.90
34153;DHT22;20426;48.372;10.888;2023-11-18T00:54:51;5.10;99.90
34153;DHT22;20426;48.372;10.888;2023-11-18T00:55:22;5.20;99.90
34153;DHT22;20426;48.372;10.888;2023-11-18T00:55:52;5.20;99.90
34153;DHT22;20426;48.372;10.888;2023-11-18T00:56:23;5.20;99.90
34153;DHT22;20426;48.372;10.888;2023-11-18T00:56:54;5.20;99.90
34153;DHT22;20426;48.372;10.888;2023-11-18T00:57:25;5.20;99.90
34153;DHT22;20426;48.372;10.888;2023-11-18T00:57:55;5.20;99.90
34153;DHT22;20426;48.372;10.888;2023-11-18T00:58:26;5.20;99.90
34153;DHT22;20426;48.372;10.888;2023-11-18T00:58:56;5.20;99.90
34153;DHT22;20426;48.372;10.888;2023-11-18T00:59:27;5.20;99.90
34153;DHT22;20426;48.372;10.888;2023-11-18T00:59:58;5.20;99.90
34153;DHT22;20426;48.372;10.888;2023-11-18T01:00:28;5.30;99.90
34153;DHT22;20426;48.372;10.888;2023-11-18T01:01:00;5.30;99.90
34153;DHT22;20426;48.372;10.888;2023-11-18T01:01:31;5.30;99.90
34153;DHT22;20426;48.372;10.888;2023-11-18T01:02:02;5.30;99.90
34153;DHT22;20426;48.372;10.888;2023-11-18T01:02:34;5.30;99.90
34153;DHT22;20426;48.372;10.888;2023-11-18T01:03:04;5.30;99.90
34153;DHT22;20426;48.372;10.888;2023-11-18T01:03:35;5.30;99.90
34153;DHT22;20426;48.372;10.888;2023-11-18T01:04:06;5.30;99.90
34153;DHT22;20426;48.372;10.888;2023-11-18T01:04:36;5.30;99.90
34153;DHT22;20426;48.372;10.888;2023-11-18T01:05:07;5.30;99.90
34153;DHT22;20426;48.372;10.888;2023-11-18T01:05:41;5.30;99.90
34153;DHT22;20426;48.372;10.888;2023-11-18T01:06:12;5.30;99.90
34153;DHT22;20426;48.372;10.888;2023-11-18T01:06:43;5.30;99.90
34153;DHT22;20426;48.372;10.888;2023-11-18T01:07:14;5.30;99.90
34153;DHT22;20426;48.372;10.888;2023-11-18T01:07:45;5.30;99.90
34153;DHT22;20426;48.372;10.888;2023-11-18T01:08:15;5.30;99.90
34153;DHT22;20426;48.372;10.888;2023-11-18T01:08:46;5.30;99.90
34153;DHT22;20426;48.372;10.888;2023-11-18T01:09:17;5.30;99.90
34153;DHT22;20426;48.372;10.888;2023-11-18T01:09:48;5.30;99.90
34153;DHT22;20426;48.372;10.888;2023-11-18T01:10:19;5.30;99.90
34153;DHT22;20426;48.372;10.888;2023-11-18T01:10:50;5.30;99.90
34153;DHT22;20426;48.372;10.888;2023-11-18T01:11:20;5.30;99.90
34153;DHT22;20426;48.372;10.888;2023-11-18T01:11:52;5.30;99.90
34153;DHT22;20426;48.372;10.888;2023-11-18T01:12:23;5.30;99.90
34153;DHT22;20426;48.372;10.888;2023-11-18T01:12:54;5.30;99.90
34153;DHT22;20426;48.372;10.888;2023-11-18T01:13:26;5.30;99.90
34153;DHT22;20426;48.372;10.888;2023-11-18T01:13:57;5.30;99.90
34153;DHT22;20426;48.372;10.888;2023-11-18T01:14:27;5.30;99.90
34153;DHT22;20426;48.372;10.888;2023-11-18T01:14:58;5.30;99.90
34153;DHT22;20426;48.372;10.888;2023-11-18T01:15:29;5.30;99.90
34153;DHT22;20426;48.372;10.888;2023-11-18T01:16:02;5.40;99.90
34153;DHT22;20426;48.372;10.888;2023-11-18T01:16:34;5.40;99.90
34153;DHT22;20426;48.372;10.888;2023-11-18T01:17:05;5.40;99.90
34153;DHT22;20426;48.372;10.888;2023-11-18T01:17:36;5.40;99.90
34153;DHT22;20426;48.372;10.888;2023-11-18T01:18:07;5.40;99.90
34153;DHT22;20426;48.372;10.888;2023-11-18T01:18:38;5.40;99.90
34153;DHT22;20426;48.372;10.888;2023-11-18T01:19:09;5.40;99.90
34153;DHT22;20426;48.372;10.888;2023-11-18T01:19:40;5.40;99.90
34153;DHT22;20426;48.372;10.888;2023-11-18T01:20:11;5.40;99.90
34153;DHT22;20426;48.372;10.888;2023-11-18T01:20:42;5.40;99.90
34153;DHT22;20426;48.372;10.888;2023-11-18T01:21:13;5.40;99.90
34153;DHT22;20426;48.372;10.888;2023-11-18T01:21:44;5.40;99.90
34153;DHT22;20426;48.372;10.888;2023-11-18T01:22:15;5.40;99.90
34153;DHT22;20426;48.372;10.888;2023-11-18T01:22:45;5.40;99.90
34153;DHT22;20426;48.372;10.888;2023-11-18T01:23:17;5.40;99.90
34153;DHT22;20426;48.372;10.888;2023-11-18T01:23:47;5.40;99.90
34153;DHT22;20426;48.372;10.888;2023-11-18T01:24:20;5.40;99.90
34153;DHT22;20426;48.372;10.888;2023-11-18T01:24:50;5.40;99.90
34153;DHT22;20426;48.372;10.888;2023-11-18T01:25:24;5.40;99.90
34153;DHT22;20426;48.372;10.888;2023-11-18T01:25:55;5.40;99.90
34153;DHT22;20426;48.372;10.888;2023-11-18T01:26:27;5.40;99.90
34153;DHT22;20426;48.372;10.888;2023-11-18T01:26:58;5.40;99.90
34153;DHT22;20426;48.372;10.888;2023-11-18T01:27:32;5.40;99.90
34153;DHT22;20426;48.372;10.888;2023-11-18T01:28:04;5.40;99.90
34153;DHT22;20426;48.372;10.888;2023-11-18T01:28:35;5.40;99.90
34153;DHT22;20426;48.372;10.888;2023-11-18T01:29:11;5.40;99.90
34153;DHT22;20426;48.372;10.888;2023-11-18T01:29:43;5.50;99.90
34153;DHT22;20426;48.372;10.888;2023-11-18T01:30:15;5.40;99.90
34153;DHT22;20426;48.372;10.888;2023-11-18T01:30:45;5.50;99.90
34153;DHT22;20426;48.372;10.888;2023-11-18T01:31:16;5.50;99.90
34153;DHT22;20426;48.372;10.888;2023-11-18T01:31:48;5.50;99.90
34153;DHT22;20426;48.372;10.888;2023-11-18T01:32:18;5.50;99.90
34153;DHT22;20426;48.372;10.888;2023-11-18T01:32:49;5.50;99.90
34153;DHT22;20426;48.372;10.888;2023-11-18T01:33:20;5.50;99.90
34153;DHT22;20426;48.372;10.888;2023-11-18T01:33:51;5.40;99.90
34153;DHT22;20426;48.372;10.888;2023-11-18T01:34:21;5.50;99.90
34153;DHT22;20426;48.372;10.888;2023-11-18T01:34:52;5.50;99.90
34153;DHT22;20426;48.372;10.888;2023-11-18T01:35:24;5.50;99.90
34153;DHT22;20426;48.372;10.888;2023-11-18T01:35:57;5.50;99.90
34153;DHT22;20426;48.372;10.888;2023-11-18T01:36:27;5.50;99.90
34153;DHT22;20426;48.372;10.888;2023-11-18T01:36:58;5.50;99.90
34153;DHT22;20426;48.372;10.888;2023-11-18T01:37:29;5.50;99.90
34153;DHT22;20426;48.372;10.888;2023-11-18T01:37:59;5.50;99.90
34153;DHT22;20426;48.372;10.888;2023-11-18T01:38:30;5.50;99.90
34153;DHT22;20426;48.372;10.888;2023-11-18T01:39:01;5.50;99.90
34153;DHT22;20426;48.372;10.888;2023-11-18T01:39:32;5.50;99.90
34153;DHT22;20426;48.372;10.888;2023-11-18T01:40:02;5.50;99.90
34153;DHT22;20426;48.372;10.888;2023-11-18T01:40:37;5.50;99.90
34153;DHT22;20426;48.372;10.888;2023-11-18T01:41:08;5.50;99.90
34153;DHT22;20426;48.372;10.888;2023-11-18T01:41:39;5.60;99.90
34153;DHT22;20426;48.372;10.888;2023-11-18T01:42:10;5.50;99.90
34153;DHT22;20426;48.372;10.888;2023-11-18T01:42:43;5.50;99.90
34153;DHT22;20426;48.372;10.888;2023-11-18T01:43:14;5.50;99.90
34153;DHT22;20426;48.372;10.888;2023-11-18T01:43:47;5.60;99.90
34153;DHT22;20426;48.372;10.888;2023-11-18T01:44:18;5.60;99.90
34153;DHT22;20426;48.372;10.888;2023-11-18T01:44:50;5.50;99.90
34153;DHT22;20426;48.372;10.888;2023-11-18T01:45:21;5.60;99.90
34153;DHT22;20426;48.372;10.888;2023-11-18T01:45:52;5.60;99.90
34153;DHT22;20426;48.372;10.888;2023-11-18T01:46:23;5.50;99.90
34153;DHT22;20426;48.372;10.888;2023-11-18T01:47:03;5.50;99.90
34153;DHT22;20426;48.372;10.888;2023-11-18T01:47:41;5.50;99.90
34153;DHT22;20426;48.372;10.888;2023-11-18T01:48:12;5.50;99.90
34153;DHT22;20426;48.372;10.888;2023-11-18T01:48:44;5.50;99.90
34153;DHT22;20426;48.372;10.888;2023-11-18T01:49:15;5.50;99.90
34153;DHT22;20426;48.372;10.888;2023-11-18T01:49:46;5.50;99.90
34153;DHT22;20426;48.372;10.888;2023-11-18T01:50:17;5.50;99.90
34153;DHT22;20426;48.372;10.888;2023-11-18T01:50:48;5.50;99.90
34153;DHT22;20426;48.372;10.888;2023-11-18T01:51:19;5.50;99.90
34153;DHT22;20426;48.372;10.888;2023-11-18T01:51:50;5.50;99.90
34153;DHT22;20426;48.372;10.888;2023-11-18T01:52:24;5.50;99.90
34153;DHT22;20426;48.372;10.888;2023-11-18T01:52:55;5.50;99.90
34153;DHT22;20426;48.372;10.888;2023-11-18T01:53:26;5.50;99.90
34153;DHT22;20426;48.372;10.888;2023-11-18T01:53:59;5.50;99.90
34153;DHT22;20426;48.372;10.888;2023-11-18T01:54:30;5.50;99.90
34153;DHT22;20426;48.372;10.888;2023-11-18T01:55:02;5.50;99.90
34153;DHT22;20426;48.372;10.888;2023-11-18T01:55:37;5.40;99.90
34153;DHT22;20426;48.372;10.888;2023-11-18T01:56:09;5.40;99.90
34153;DHT22;20426;48.372;10.888;2023-11-18T01:56:39;5.40;99.90
34153;DHT22;20426;48.372;10.888;2023-11-18T01:57:10;5.40;99.90
34153;DHT22;20426;48.372;10.888;2023-11-18T01:57:41;5.40;99.90
34153;DHT22;20426;48.372;10.888;2023-11-18T01:58:14;5.50;99.90
34153;DHT22;20426;48.372;10.888;2023-11-18T01:58:50;5.50;99.90
34153;DHT22;20426;48.372;10.888;2023-11-18T01:59:21;5.40;99.90
34153;DHT22;20426;48.372;10.888;2023-11-18T01:59:53;5.50;99.90
34153;DHT22;20426;48.372;10.888;2023-11-18T02:00:24;5.50;99.90
34153;DHT22;20426;48.372;10.888;2023-11-18T02:00:55;5.50;99.90
34153;DHT22;20426;48.372;10.888;2023-11-18T02:01:27;5.50;99.90
34153;DHT22;20426;48.372;10.888;2023-11-18T02:01:59;5.50;99.90
34153;DHT22;20426;48.372;10.888;2023-11-18T02:02:34;5.50;99.90
34153;DHT22;20426;48.372;10.888;2023-11-18T02:03:08;5.50;99.90
34153;DHT22;20426;48.372;10.888;2023-11-18T02:03:39;5.50;99.90
34153;DHT22;20426;48.372;10.888;2023-11-18T02:04:12;5.40;99.90
34153;DHT22;20426;48.372;10.888;2023-11-18T02:04:43;5.40;99.90
34153;DHT22;20426;48.372;10.888;2023-11-18T02:05:15;5.40;99.90
34153;DHT22;20426;48.372;10.888;2023-11-18T02:05:47;5.50;99.90
34153;DHT22;20426;48.372;10.888;2023-11-18T02:06:18;5.40;99.90
34153;DHT22;20426;48.372;10.888;2023-11-18T02:06:49;5.40;99.90
34153;DHT22;20426;48.372;10.888;2023-11-18T02:07:20;5.40;99.90
34153;DHT22;20426;48.372;10.888;2023-11-18T02:07:51;5.40;99.90
34153;DHT22;20426;48.372;10.888;2023-11-18T02:08:22;5.40;99.90
34153;DHT22;20426;48.372;10.888;2023-11-18T02:08:53;5.40;99.90
34153;DHT22;20426;48.372;10.888;2023-11-18T02:09:24;5.40;99.90
34153;DHT22;20426;48.372;10.888;2023-11-18T02:09:59;5.40;99.90
34153;DHT22;20426;48.372;10.888;2023-11-18T02:11:00;5.30;99.90
34153;DHT22;20426;48.372;10.888;2023-11-18T02:11:37;5.30;99.90
34153;DHT22;20426;48.372;10.888;2023-11-18T02:13:23;5.30;99.90
34153;DHT22;20426;48.372;10.888;2023-11-18T02:13:58;5.30;99.90
34153;DHT22;20426;48.372;10.888;2023-11-18T02:14:33;5.30;99.90
34153;DHT22;20426;48.372;10.888;2023-11-18T02:15:08;5.30;99.90
34153;DHT22;20426;48.372;10.888;2023-11-18T02:15:41;5.30;99.90
34153;DHT22;20426;48.372;10.888;2023-11-18T02:16:12;5.30;99.90
34153;DHT22;20426;48.372;10.888;2023-11-18T02:16:44;5.30;99.90
34153;DHT22;20426;48.372;10.888;2023-11-18T02:17:20;5.30;99.90
34153;DHT22;20426;48.372;10.888;2023-11-18T02:17:53;5.30;99.90
34153;DHT22;20426;48.372;10.888;2023-11-18T02:18:26;5.20;99.90
34153;DHT22;20426;48.372;10.888;2023-11-18T02:18:59;5.20;99.90
34153;DHT22;20426;48.372;10.888;2023-11-18T02:19:32;5.20;99.90
34153;DHT22;20426;48.372;10.888;2023-11-18T02:20:04;5.20;99.90
34153;DHT22;20426;48.372;10.888;2023-11-18T02:20:44;5.20;99.90
34153;DHT22;20426;48.372;10.888;2023-11-18T02:21:15;5.20;99.90
34153;DHT22;20426;48.372;10.888;2023-11-18T02:21:47;5.20;99.90
34153;DHT22;20426;48.372;10.888;2023-11-18T02:22:18;5.10;99.90
34153;DHT22;20426;48.372;10.888;2023-11-18T02:22:50;5.10;99.90
34153;DHT22;20426;48.372;10.888;2023-11-18T02:23:21;5.10;99.90
34153;DHT22;20426;48.372;10.888;2023-11-18T02:23:52;5.10;99.90
34153;DHT22;20426;48.372;10.888;2023-11-18T02:24:31;5.10;99.90
34153;DHT22;20426;48.372;10.888;2023-11-18T02:25:06;5.10;99.90
34153;DHT22;20426;48.372;10.888;2023-11-18T02:25:44;5.10;99.90
34153;DHT22;20426;48.372;10.888;2023-11-18T02:26:22;5.10;99.90
34153;DHT22;20426;48.372;10.888;2023-11-18T02:26:54;5.00;99.90
34153;DHT22;20426;48.372;10.888;2023-11-18T02:27:26;5.10;99.90
34153;DHT22;20426;48.372;10.888;2023-11-18T02:27:57;5.10;99.90
34153;DHT22;20426;48.372;10.888;2023-11-18T02:28:28;5.10;99.90
34153;DHT22;20426;48.372;10.888;2023-11-18T02:28:58;5.10;99.90
34153;DHT22;20426;48.372;10.888;2023-11-18T02:29:33;5.10;99.90
34153;DHT22;20426;48.372;10.888;2023-11-18T02:30:07;5.10;99.90
34153;DHT22;20426;48.372;10.888;2023-11-18T02:30:43;5.10;99.90
34153;DHT22;20426;48.372;10.888;2023-11-18T02:31:22;5.00;99.90
34153;DHT22;20426;48.372;10.888;2023-11-18T02:31:59;5.00;99.90
34153;DHT22;20426;48.372;10.888;2023-11-18T02:32:45;5.00;99.90
34153;DHT22;20426;48.372;10.888;2023-11-18T02:33:41;5.00;99.90
34153;DHT22;20426;48.372;10.888;2023-11-18T02:34:16;5.00;99.90
34153;DHT22;20426;48.372;10.888;2023-11-18T02:35:29;4.90;99.90
34153;DHT22;20426;48.372;10.888;2023-11-18T02:36:13;4.90;99.90
34153;DHT22;20426;48.372;10.888;2023-11-18T02:36:48;4.90;99.90
34153;DHT22;20426;48.372;10.888;2023-11-18T02:37:20;4.90;99.90
34153;DHT22;20426;48.372;10.888;2023-11-18T02:37:54;4.90;99.90
34153;DHT22;20426;48.372;10.888;2023-11-18T02:38:30;4.90;99.90
34153;DHT22;20426;48.372;10.888;2023-11-18T02:39:05;4.90;99.90
34153;DHT22;20426;48.372;10.888;2023-11-18T02:39:43;4.90;99.90
34153;DHT22;20426;48.372;10.888;2023-11-18T02:40:41;4.90;99.90
34153;DHT22;20426;48.372;10.888;2023-11-18T02:41:16;4.80;99.90
34153;DHT22;20426;48.372;10.888;2023-11-18T02:41:52;4.80;99.90
34153;DHT22;20426;48.372;10.888;2023-11-18T02:42:23;4.80;99.90
34153;DHT22;20426;48.372;10.888;2023-11-18T02:42:55;4.80;99.90
34153;DHT22;20426;48.372;10.888;2023-11-18T02:43:29;4.80;99.90
34153;DHT22;20426;48.372;10.888;2023-11-18T02:44:00;4.80;99.90
34153;DHT22;20426;48.372;10.888;2023-11-18T02:44:31;4.80;99.90
34153;DHT22;20426;48.372;10.888;2023-11-18T02:45:03;4.80;99.90
34153;DHT22;20426;48.372;10.888;2023-11-18T02:45:37;4.80;99.90
34153;DHT22;20426;48.372;10.888;2023-11-18T02:46:09;4.80;99.90
34153;DHT22;20426;48.372;10.888;2023-11-18T02:46:43;4.80;99.90
34153;DHT22;20426;48.372;10.888;2023-11-18T02:47:14;4.80;99.90
34153;DHT22;20426;48.372;10.888;2023-11-18T02:47:46;4.80;99.90
34153;DHT22;20426;48.372;10.888;2023-11-18T02:48:18;4.80;99.90
34153;DHT22;20426;48.372;10.888;2023-11-18T02:48:50;4.80;99.90
34153;DHT22;20426;48.372;10.888;2023-11-18T02:49:24;4.80;99.90
34153;DHT22;20426;48.372;10.888;2023-11-18T02:49:55;4.80;99.90
34153;DHT22;20426;48.372;10.888;2023-11-18T02:50:27;4.70;99.90
34153;DHT22;20426;48.372;10.888;2023-11-18T02:50:59;4.70;99.90
34153;DHT22;20426;48.372;10.888;2023-11-18T02:51:30;4.80;99.90
34153;DHT22;20426;48.372;10.888;2023-11-18T02:52:09;4.70;99.90
34153;DHT22;20426;48.372;10.888;2023-11-18T02:52:40;4.80;99.90
34153;DHT22;20426;48.372;10.888;2023-11-18T02:53:11;4.80;99.90
34153;DHT22;20426;48.372;10.888;2023-11-18T02:53:42;4.80;99.90
34153;DHT22;20426;48.372;10.888;2023-11-18T02:54:15;4.80;99.90
34153;DHT22;20426;48.372;10.888;2023-11-18T02:54:46;4.80;99.90
34153;DHT22;20426;48.372;10.888;2023-11-18T02:55:17;4.80;99.90
34153;DHT22;20426;48.372;10.888;2023-11-18T02:55:48;4.80;99.90
34153;DHT22;20426;48.372;10.888;2023-11-18T02:56:21;4.80;99.90
34153;DHT22;20426;48.372;10.888;2023-11-18T02:56:52;4.80;99.90
34153;DHT22;20426;48.372;10.888;2023-11-18T02:57:23;4.70;99.90
34153;DHT22;20426;48.372;10.888;2023-11-18T02:57:53;4.70;99.90
34153;DHT22;20426;48.372;10.888;2023-11-18T02:58:24;4.70;99.90
34153;DHT22;20426;48.372;10.888;2023-11-18T02:58:55;4.80;99.90
34153;DHT22;20426;48.372;10.888;2023-11-18T02:59:26;4.80;99.90
34153;DHT22;20426;48.372;10.888;2023-11-18T02:59:56;4.70;99.90
34153;DHT22;20426;48.372;10.888;2023-11-18T03:00:28;4.70;99.90
34153;DHT22;20426;48.372;10.888;2023-11-18T03:00:58;4.70;99.90
34153;DHT22;20426;48.372;10.888;2023-11-18T03:01:30;4.80;99.90
34153;DHT22;20426;48.372;10.888;2023-11-18T03:02:00;4.70;99.90
34153;DHT22;20426;48.372;10.888;2023-11-18T03:02:32;4.70;99.90
34153;DHT22;20426;48.372;10.888;2023-11-18T03:03:03;4.70;99.90
34153;DHT22;20426;48.372;10.888;2023-11-18T03:03:33;4.70;99.90
34153;DHT22;20426;48.372;10.888;2023-11-18T03:04:04;4.80;99.90
34153;DHT22;20426;48.372;10.888;2023-11-18T03:04:35;4.70;99.90
34153;DHT22;20426;48.372;10.888;2023-11-18T03:05:07;4.70;99.90
34153;DHT22;20426;48.372;10.888;2023-11-18T03:05:38;4.80;99.90
34153;DHT22;20426;48.372;10.888;2023-11-18T03:06:08;4.80;99.90
34153;DHT22;20426;48.372;10.888;2023-11-18T03:06:41;4.70;99.90
34153;DHT22;20426;48.372;10.888;2023-11-18T03:07:12;4.80;99.90
34153;DHT22;20426;48.372;10.888;2023-11-18T03:07:44;4.80;99.90
34153;DHT22;20426;48.372;10.888;2023-11-18T03:08:17;4.80;99.90
34153;DHT22;20426;48.372;10.888;2023-11-18T03:08:48;4.80;99.90
34153;DHT22;20426;48.372;10.888;2023-11-18T03:09:19;4.80;99.90
34153;DHT22;20426;48.372;10.888;2023-11-18T03:09:50;4.80;99.90
34153;DHT22;20426;48.372;10.888;2023-11-18T03:10:21;4.80;99.90
34153;DHT22;20426;48.372;10.888;2023-11-18T03:10:51;4.80;99.90
34153;DHT22;20426;48.372;10.888;2023-11-18T03:11:22;4.80;99.90
34153;DHT22;20426;48.372;10.888;2023-11-18T03:11:53;4.80;99.90
34153;DHT22;20426;48.372;10.888;2023-11-18T03:12:25;4.80;99.90
34153;DHT22;20426;48.372;10.888;2023-11-18T03:12:59;4.90;99.90
34153;DHT22;20426;48.372;10.888;2023-11-18T03:13:29;4.80;99.90
34153;DHT22;20426;48.372;10.888;2023-11-18T03:14:00;4.80;99.90
34153;DHT22;20426;48.372;10.888;2023-11-18T03:14:31;4.90;99.90
34153;DHT22;20426;48.372;10.888;2023-11-18T03:15:04;4.90;99.90
34153;DHT22;20426;48.372;10.888;2023-11-18T03:15:35;4.80;99.90
34153;DHT22;20426;48.372;10.888;2023-11-18T03:16:07;4.80;99.90
34153;DHT22;20426;48.372;10.888;2023-11-18T03:16:41;4.90;99.90
34153;DHT22;20426;48.372;10.888;2023-11-18T03:17:12;4.90;99.90
34153;DHT22;20426;48.372;10.888;2023-11-18T03:17:48;4.90;99.90
34153;DHT22;20426;48.372;10.888;2023-11-18T03:18:20;4.90;99.90
34153;DHT22;20426;48.372;10.888;2023-11-18T03:18:51;4.90;99.90
34153;DHT22;20426;48.372;10.888;2023-11-18T03:19:21;4.90;99.90
34153;DHT22;20426;48.372;10.888;2023-11-18T03:19:52;4.90;99.90
34153;DHT22;20426;48.372;10.888;2023-11-18T03:20:23;4.90;99.90
34153;DHT22;20426;48.372;10.888;2023-11-18T03:20:56;4.90;99.90
34153;DHT22;20426;48.372;10.888;2023-11-18T03:21:27;4.90;99.90
34153;DHT22;20426;48.372;10.888;2023-11-18T03:21:57;4.90;99.90
34153;DHT22;20426;48.372;10.888;2023-11-18T03:22:28;4.90;99.90
34153;DHT22;20426;48.372;10.888;2023-11-18T03:23:00;4.90;99.90
34153;DHT22;20426;48.372;10.888;2023-11-18T03:23:32;4.90;99.90
34153;DHT22;20426;48.372;10.888;2023-11-18T03:24:03;4.90;99.90